sensor_id;sensor_type;location;lat;lon;timestamp;temperature;humidity
48752;DHT22;34544;48.836;9.174;2023-06-26T00:00:20;19.00;99.90
48752;DHT22;34544;48.836;9.174;2023-06-26T00:02:45;19.00;99.90
48752;DHT22;34544;48.836;9.174;2023-06-26T00:05:11;19.00;99.90
48752;DHT22;34544;48.836;9.174;2023-06-26T00:07:37;19.00;99.90
48752;DHT22;34544;48.836;9.174;2023-06-26T00:10:03;18.90;99.90
48752;DHT22;34544;48.836;9.174;2023-06-26T00:12:30;18.90;99.90
48752;DHT22;34544;48.836;9.174;2023-06-26T00:14:56;18.90;99.90
48752;DHT22;34544;48.836;9.174;2023-06-26T00:17:22;18.80;99.90
48752;DHT22;34544;48.836;9.174;2023-06-26T00:19:48;18.90;99.90
48752;DHT22;34544;48.836;9.174;2023-06-26T00:22:14;18.80;99.90
48752;DHT22;34544;48.836;9.174;2023-06-26T00:24:40;18.80;99.90
48752;DHT22;34544;48.836;9.174;2023-06-26T00:27:05;18.80;99.90
48752;DHT22;34544;48.836;9.174;2023-06-26T00:29:31;18.70;99.90
48752;DHT22;34544;48.836;9.174;2023-06-26T00:31:57;18.70;99.90
48752;DHT22;34544;48.836;9.174;2023-06-26T00:34:22;18.70;99.90
48752;DHT22;34544;48.836;9.174;2023-06-26T00:36:48;18.70;99.90
48752;DHT22;34544;48.836;9.174;2023-06-26T00:39:14;18.60;99.90
48752;DHT22;34544;48.836;9.174;2023-06-26T00:41:40;18.60;99.90
48752;DHT22;34544;48.836;9.174;2023-06-26T00:44:06;18.60;99.90
48752;DHT22;34544;48.836;9.174;2023-06-26T00:46:33;18.50;99.90
48752;DHT22;34544;48.836;9.174;2023-06-26T00:49:01;18.50;99.90
48752;DHT22;34544;48.836;9.174;2023-06-26T00:51:29;18.50;99.90
48752;DHT22;34544;48.836;9.174;2023-06-26T00:53:55;18.40;99.90
48752;DHT22;34544;48.836;9.174;2023-06-26T00:56:22;18.40;99.90
48752;DHT22;34544;48.836;9.174;2023-06-26T00:58:47;18.40;99.90
48752;DHT22;34544;48.836;9.174;2023-06-26T01:01:13;18.40;99.90
48752;DHT22;34544;48.836;9.174;2023-06-26T01:03:46;18.40;99.90
48752;DHT22;34544;48.836;9.174;2023-06-26T01:06:17;18.40;99.90
48752;DHT22;34544;48.836;9.174;2023-06-26T01:08:44;18.30;99.90
48752;DHT22;34544;48.836;9.174;2023-06-26T01:11:10;18.30;99.90
48752;DHT22;34544;48.836;9.174;2023-06-26T01:13:36;18.30;99.90
48752;DHT22;34544;48.836;9.174;2023-06-26T01:16:02;18.30;99.90
48752;DHT22;34544;48.836;9.174;2023-06-26T01:18:30;18.30;99.90
48752;DHT22;34544;48.836;9.174;2023-06-26T01:20:57;18.20;99.90
48752;DHT22;34544;48.836;9.174;2023-06-26T01:26:23;18.20;99.90
48752;DHT22;34544;48.836;9.174;2023-06-26T01:28:53;18.20;99.90
48752;DHT22;34544;48.836;9.174;2023-06-26T01:31:19;18.10;99.90
48752;DHT22;34544;48.836;9.174;2023-06-26T01:33:45;18.10;99.90
48752;DHT22;34544;48.836;9.174;2023-06-26T01:36:12;18.10;99.90
48752;DHT22;34544;48.836;9.174;2023-06-26T01:38:37;18.10;99.90
48752;DHT22;34544;48.836;9.174;2023-06-26T01:41:06;18.00;99.90
48752;DHT22;34544;48.836;9.174;2023-06-26T01:46:24;18.00;99.90
48752;DHT22;34544;48.836;9.174;2023-06-26T01:51:35;18.00;99.90
48752;DHT22;34544;48.836;9.174;2023-06-26T01:54:07;18.00;99.90
48752;DHT22;34544;48.836;9.174;2023-06-26T01:56:37;17.90;99.90
48752;DHT22;34544;48.836;9.174;2023-06-26T01:59:03;17.90;99.90
48752;DHT22;34544;48.836;9.174;2023-06-26T02:01:31;17.90;99.90
48752;DHT22;34544;48.836;9.174;2023-06-26T02:03:59;17.90;99.90
48752;DHT22;34544;48.836;9.174;2023-06-26T02:06:25;17.90;99.90
48752;DHT22;34544;48.836;9.174;2023-06-26T02:08:50;17.80;99.90
48752;DHT22;34544;48.836;9.174;2023-06-26T02:11:16;17.80;99.90
48752;DHT22;34544;48.836;9.174;2023-06-26T02:13:42;17.80;99.90
48752;DHT22;34544;48.836;9.174;2023-06-26T02:16:07;17.80;99.90
48752;DHT22;34544;48.836;9.174;2023-06-26T02:18:33;17.80;99.90
48752;DHT22;34544;48.836;9.174;2023-06-26T02:20:59;17.70;99.90
48752;DHT22;34544;48.836;9.174;2023-06-26T02:23:25;17.70;99.90
48752;DHT22;34544;48.836;9.174;2023-06-26T02:25:50;17.70;99.90
48752;DHT22;34544;48.836;9.174;2023-06-26T02:28:16;17.70;99.90
48752;DHT22;34544;48.836;9.174;2023-06-26T02:30:42;17.70;99.90
48752;DHT22;34544;48.836;9.174;2023-06-26T02:33:08;17.60;99.90
48752;DHT22;34544;48.836;9.174;2023-06-26T02:35:34;17.60;99.90
48752;DHT22;34544;48.836;9.174;2023-06-26T02:37:59;17.60;99.90
48752;DHT22;34544;48.836;9.174;2023-06-26T02:40:25;17.60;99.90
48752;DHT22;34544;48.836;9.174;2023-06-26T02:42:52;17.50;99.90
48752;DHT22;34544;48.836;9.174;2023-06-26T02:45:18;17.50;99.90
48752;DHT22;34544;48.836;9.174;2023-06-26T02:47:44;17.50;99.90
48752;DHT22;34544;48.836;9.174;2023-06-26T02:50:11;17.50;99.90
48752;DHT22;34544;48.836;9.174;2023-06-26T02:53:05;17.50;99.90
48752;DHT22;34544;48.836;9.174;2023-06-26T02:55:31;17.40;99.90
48752;DHT22;34544;48.836;9.174;2023-06-26T02:57:57;17.40;99.90
48752;DHT22;34544;48.836;9.174;2023-06-26T03:00:23;17.40;99.90
48752;DHT22;34544;48.836;9.174;2023-06-26T03:02:51;17.40;99.90
48752;DHT22;34544;48.836;9.174;2023-06-26T03:05:19;17.40;99.90
48752;DHT22;34544;48.836;9.174;2023-06-26T03:07:45;17.40;99.90
48752;DHT22;34544;48.836;9.174;2023-06-26T03:10:11;17.40;99.90
48752;DHT22;34544;48.836;9.174;2023-06-26T03:12:37;17.40;99.90
48752;DHT22;34544;48.836;9.174;2023-06-26T03:15:02;17.40;99.90
48752;DHT22;34544;48.836;9.174;2023-06-26T03:17:28;17.30;99.90
48752;DHT22;34544;48.836;9.174;2023-06-26T03:20:02;17.30;99.90
48752;DHT22;34544;48.836;9.174;2023-06-26T03:22:39;17.30;99.90
48752;DHT22;34544;48.836;9.174;2023-06-26T03:25:05;17.30;99.90
48752;DHT22;34544;48.836;9.174;2023-06-26T03:27:31;17.30;99.90
48752;DHT22;34544;48.836;9.174;2023-06-26T03:29:57;17.30;99.90
48752;DHT22;34544;48.836;9.174;2023-06-26T03:32:23;17.30;99.90
48752;DHT22;34544;48.836;9.174;2023-06-26T03:34:49;17.40;99.90
48752;DHT22;34544;48.836;9.174;2023-06-26T03:37:15;17.40;99.90
48752;DHT22;34544;48.836;9.174;2023-06-26T03:39:40;17.40;99.90
48752;DHT22;34544;48.836;9.174;2023-06-26T03:42:07;17.40;99.90
48752;DHT22;34544;48.836;9.174;2023-06-26T03:44:32;17.40;99.90
48752;DHT22;34544;48.836;9.174;2023-06-26T03:46:58;17.40;99.90
48752;DHT22;34544;48.836;9.174;2023-06-26T03:49:24;17.40;99.90
48752;DHT22;34544;48.836;9.174;2023-06-26T03:51:51;17.40;99.90
48752;DHT22;34544;48.836;9.174;2023-06-26T03:54:17;17.40;99.90
48752;DHT22;34544;48.836;9.174;2023-06-26T03:56:42;17.50;99.90
48752;DHT22;34544;48.836;9.174;2023-06-26T03:59:08;17.50;99.90
48752;DHT22;34544;48.836;9.174;2023-06-26T04:01:36;17.40;99.90
48752;DHT22;34544;48.836;9.174;2023-06-26T04:04:04;17.50;99.90
48752;DHT22;34544;48.836;9.174;2023-06-26T04:06:31;17.50;99.90
48752;DHT22;34544;48.836;9.174;2023-06-26T04:08:57;17.50;99.90
48752;DHT22;34544;48.836;9.174;2023-06-26T04:11:23;17.50;99.90
48752;DHT22;34544;48.836;9.174;2023-06-26T04:13:49;17.60;99.90
48752;DHT22;34544;48.836;9.174;2023-06-26T04:16:15;17.60;99.90
48752;DHT22;34544;48.836;9.174;2023-06-26T04:18:41;17.60;99.90
48752;DHT22;34544;48.836;9.174;2023-06-26T04:21:11;17.70;99.90
48752;DHT22;34544;48.836;9.174;2023-06-26T04:23:37;17.70;99.90
48752;DHT22;34544;48.836;9.174;2023-06-26T04:26:04;17.80;99.90
48752;DHT22;34544;48.836;9.174;2023-06-26T04:28:31;17.80;99.90
48752;DHT22;34544;48.836;9.174;2023-06-26T04:30:58;17.80;99.90
48752;DHT22;34544;48.836;9.174;2023-06-26T04:33:24;17.90;99.90
48752;DHT22;34544;48.836;9.174;2023-06-26T04:35:51;18.00;99.90
48752;DHT22;34544;48.836;9.174;2023-06-26T04:38:17;18.10;99.90
48752;DHT22;34544;48.836;9.174;2023-06-26T04:40:43;18.20;99.90
48752;DHT22;34544;48.836;9.174;2023-06-26T04:43:09;18.30;99.90
48752;DHT22;34544;48.836;9.174;2023-06-26T04:45:35;18.40;99.90
48752;DHT22;34544;48.836;9.174;2023-06-26T04:48:00;18.50;99.90
48752;DHT22;34544;48.836;9.174;2023-06-26T04:50:26;18.60;99.90
48752;DHT22;34544;48.836;9.174;2023-06-26T04:52:55;18.70;99.90
48752;DHT22;34544;48.836;9.174;2023-06-26T04:55:20;18.80;99.90
48752;DHT22;34544;48.836;9.174;2023-06-26T04:57:49;18.90;99.90
48752;DHT22;34544;48.836;9.174;2023-06-26T05:00:15;19.00;99.90
48752;DHT22;34544;48.836;9.174;2023-06-26T05:02:41;19.20;99.90
48752;DHT22;34544;48.836;9.174;2023-06-26T05:05:07;19.30;99.90
48752;DHT22;34544;48.836;9.174;2023-06-26T05:07:33;19.40;99.90
48752;DHT22;34544;48.836;9.174;2023-06-26T05:09:58;19.60;99.90
48752;DHT22;34544;48.836;9.174;2023-06-26T05:12:24;19.70;99.90
48752;DHT22;34544;48.836;9.174;2023-06-26T05:14:50;19.80;99.90
48752;DHT22;34544;48.836;9.174;2023-06-26T05:17:16;19.90;99.90
48752;DHT22;34544;48.836;9.174;2023-06-26T05:19:42;20.10;99.90
48752;DHT22;34544;48.836;9.174;2023-06-26T05:22:08;20.20;99.90
48752;DHT22;34544;48.836;9.174;2023-06-26T05:24:38;20.30;99.90
48752;DHT22;34544;48.836;9.174;2023-06-26T05:27:04;20.50;99.90
48752;DHT22;34544;48.836;9.174;2023-06-26T05:29:31;20.60;99.90
48752;DHT22;34544;48.836;9.174;2023-06-26T05:31:57;20.70;99.90
48752;DHT22;34544;48.836;9.174;2023-06-26T05:34:23;21.00;99.90
48752;DHT22;34544;48.836;9.174;2023-06-26T05:36:57;21.00;99.90
48752;DHT22;34544;48.836;9.174;2023-06-26T05:39:23;21.10;99.90
48752;DHT22;34544;48.836;9.174;2023-06-26T05:41:50;21.20;99.90
48752;DHT22;34544;48.836;9.174;2023-06-26T05:44:15;21.30;99.90
48752;DHT22;34544;48.836;9.174;2023-06-26T05:46:41;21.40;99.90
48752;DHT22;34544;48.836;9.174;2023-06-26T05:49:07;21.50;99.90
48752;DHT22;34544;48.836;9.174;2023-06-26T05:51:33;21.60;99.90
48752;DHT22;34544;48.836;9.174;2023-06-26T05:53:59;21.70;99.90
48752;DHT22;34544;48.836;9.174;2023-06-26T05:56:25;21.80;99.90
48752;DHT22;34544;48.836;9.174;2023-06-26T05:58:51;21.90;99.90
48752;DHT22;34544;48.836;9.174;2023-06-26T06:01:17;22.00;99.90
48752;DHT22;34544;48.836;9.174;2023-06-26T06:03:44;22.10;99.90
48752;DHT22;34544;48.836;9.174;2023-06-26T06:06:10;22.20;99.90
48752;DHT22;34544;48.836;9.174;2023-06-26T06:08:36;22.30;99.90
48752;DHT22;34544;48.836;9.174;2023-06-26T06:11:02;22.40;99.90
48752;DHT22;34544;48.836;9.174;2023-06-26T06:13:27;22.50;99.90
48752;DHT22;34544;48.836;9.174;2023-06-26T06:15:53;22.60;99.90
48752;DHT22;34544;48.836;9.174;2023-06-26T06:18:20;22.70;99.90
48752;DHT22;34544;48.836;9.174;2023-06-26T06:20:46;22.80;99.90
48752;DHT22;34544;48.836;9.174;2023-06-26T06:23:11;22.90;99.90
48752;DHT22;34544;48.836;9.174;2023-06-26T06:25:37;23.00;99.90
48752;DHT22;34544;48.836;9.174;2023-06-26T06:30:30;23.30;99.90
48752;DHT22;34544;48.836;9.174;2023-06-26T06:32:55;23.50;99.90
48752;DHT22;34544;48.836;9.174;2023-06-26T06:35:21;23.60;99.90
48752;DHT22;34544;48.836;9.174;2023-06-26T06:37:47;23.70;99.90
48752;DHT22;34544;48.836;9.174;2023-06-26T06:40:12;23.80;99.90
48752;DHT22;34544;48.836;9.174;2023-06-26T06:42:39;23.90;99.90
48752;DHT22;34544;48.836;9.174;2023-06-26T06:45:05;24.10;99.90
48752;DHT22;34544;48.836;9.174;2023-06-26T06:47:32;24.10;99.90
48752;DHT22;34544;48.836;9.174;2023-06-26T06:49:58;24.30;99.90
48752;DHT22;34544;48.836;9.174;2023-06-26T06:52:24;24.40;99.90
48752;DHT22;34544;48.836;9.174;2023-06-26T06:54:54;24.50;99.90
48752;DHT22;34544;48.836;9.174;2023-06-26T06:57:23;24.60;99.90
48752;DHT22;34544;48.836;9.174;2023-06-26T06:59:49;24.80;99.90
48752;DHT22;34544;48.836;9.174;2023-06-26T07:02:16;24.90;99.90
48752;DHT22;34544;48.836;9.174;2023-06-26T07:04:42;25.00;99.90
48752;DHT22;34544;48.836;9.174;2023-06-26T07:07:08;25.10;99.90
48752;DHT22;34544;48.836;9.174;2023-06-26T07:09:34;25.40;99.90
48752;DHT22;34544;48.836;9.174;2023-06-26T07:11:59;25.60;99.90
48752;DHT22;34544;48.836;9.174;2023-06-26T07:16:51;26.50;99.90
48752;DHT22;34544;48.836;9.174;2023-06-26T07:19:17;26.30;99.90
48752;DHT22;34544;48.836;9.174;2023-06-26T07:21:42;26.60;99.90
48752;DHT22;34544;48.836;9.174;2023-06-26T07:24:10;26.90;99.70
48752;DHT22;34544;48.836;9.174;2023-06-26T07:26:36;27.00;99.90
48752;DHT22;34544;48.836;9.174;2023-06-26T07:29:01;27.20;99.50
48752;DHT22;34544;48.836;9.174;2023-06-26T07:31:27;27.50;99.90
48752;DHT22;34544;48.836;9.174;2023-06-26T07:36:19;27.90;99.90
48752;DHT22;34544;48.836;9.174;2023-06-26T07:38:44;28.10;99.90
48752;DHT22;34544;48.836;9.174;2023-06-26T07:41:10;28.30;98.60
48752;DHT22;34544;48.836;9.174;2023-06-26T07:43:35;28.50;97.20
48752;DHT22;34544;48.836;9.174;2023-06-26T07:46:01;28.60;96.80
48752;DHT22;34544;48.836;9.174;2023-06-26T07:48:27;28.80;96.60
48752;DHT22;34544;48.836;9.174;2023-06-26T07:50:52;28.80;95.70
48752;DHT22;34544;48.836;9.174;2023-06-26T07:53:19;29.00;96.10
48752;DHT22;34544;48.836;9.174;2023-06-26T07:55:45;29.10;95.40
48752;DHT22;34544;48.836;9.174;2023-06-26T07:58:10;29.30;99.90
48752;DHT22;34544;48.836;9.174;2023-06-26T08:00:37;29.40;95.00
48752;DHT22;34544;48.836;9.174;2023-06-26T08:03:03;29.50;94.70
48752;DHT22;34544;48.836;9.174;2023-06-26T08:05:29;29.70;95.00
48752;DHT22;34544;48.836;9.174;2023-06-26T08:07:55;30.00;94.90
48752;DHT22;34544;48.836;9.174;2023-06-26T08:10:20;30.20;94.60
48752;DHT22;34544;48.836;9.174;2023-06-26T08:12:46;30.40;93.00
48752;DHT22;34544;48.836;9.174;2023-06-26T08:15:13;30.60;93.60
48752;DHT22;34544;48.836;9.174;2023-06-26T08:17:38;30.90;92.60
48752;DHT22;34544;48.836;9.174;2023-06-26T08:20:05;31.00;92.00
48752;DHT22;34544;48.836;9.174;2023-06-26T08:22:33;31.20;91.90
48752;DHT22;34544;48.836;9.174;2023-06-26T08:24:59;31.40;91.60
48752;DHT22;34544;48.836;9.174;2023-06-26T08:27:25;31.60;91.80
48752;DHT22;34544;48.836;9.174;2023-06-26T08:29:50;31.80;91.10
48752;DHT22;34544;48.836;9.174;2023-06-26T08:32:16;32.00;91.10
48752;DHT22;34544;48.836;9.174;2023-06-26T08:34:41;32.10;91.00
48752;DHT22;34544;48.836;9.174;2023-06-26T08:37:07;32.10;90.90
48752;DHT22;34544;48.836;9.174;2023-06-26T08:39:35;32.30;90.10
48752;DHT22;34544;48.836;9.174;2023-06-26T08:42:00;32.50;91.90
48752;DHT22;34544;48.836;9.174;2023-06-26T08:44:26;32.60;90.00
48752;DHT22;34544;48.836;9.174;2023-06-26T08:46:51;32.70;89.90
48752;DHT22;34544;48.836;9.174;2023-06-26T08:49:43;32.90;88.80
48752;DHT22;34544;48.836;9.174;2023-06-26T08:52:28;33.20;89.20
48752;DHT22;34544;48.836;9.174;2023-06-26T08:54:58;33.40;87.90
48752;DHT22;34544;48.836;9.174;2023-06-26T08:57:25;33.60;87.60
48752;DHT22;34544;48.836;9.174;2023-06-26T08:59:52;33.70;86.50
48752;DHT22;34544;48.836;9.174;2023-06-26T09:02:18;33.90;86.10
48752;DHT22;34544;48.836;9.174;2023-06-26T09:04:43;34.10;84.70
48752;DHT22;34544;48.836;9.174;2023-06-26T09:07:09;34.20;85.10
48752;DHT22;34544;48.836;9.174;2023-06-26T09:09:35;34.30;85.40
48752;DHT22;34544;48.836;9.174;2023-06-26T09:12:02;34.40;83.40
48752;DHT22;34544;48.836;9.174;2023-06-26T09:14:29;34.50;84.50
48752;DHT22;34544;48.836;9.174;2023-06-26T09:16:55;34.60;84.00
48752;DHT22;34544;48.836;9.174;2023-06-26T09:19:21;34.70;82.00
48752;DHT22;34544;48.836;9.174;2023-06-26T09:21:49;34.60;83.30
48752;DHT22;34544;48.836;9.174;2023-06-26T09:24:16;34.70;83.70
48752;DHT22;34544;48.836;9.174;2023-06-26T09:26:42;34.90;82.00
48752;DHT22;34544;48.836;9.174;2023-06-26T09:29:09;35.10;80.90
48752;DHT22;34544;48.836;9.174;2023-06-26T09:31:39;35.30;80.80
48752;DHT22;34544;48.836;9.174;2023-06-26T09:34:05;35.20;78.90
48752;DHT22;34544;48.836;9.174;2023-06-26T09:36:32;35.30;79.90
48752;DHT22;34544;48.836;9.174;2023-06-26T09:39:02;35.50;80.70
48752;DHT22;34544;48.836;9.174;2023-06-26T09:41:30;35.80;79.90
48752;DHT22;34544;48.836;9.174;2023-06-26T09:44:01;36.10;78.00
48752;DHT22;34544;48.836;9.174;2023-06-26T09:46:29;36.30;77.50
48752;DHT22;34544;48.836;9.174;2023-06-26T09:49:03;36.50;77.00
48752;DHT22;34544;48.836;9.174;2023-06-26T09:51:33;36.60;77.10
48752;DHT22;34544;48.836;9.174;2023-06-26T09:54:02;36.30;76.20
48752;DHT22;34544;48.836;9.174;2023-06-26T09:56:29;36.00;76.80
48752;DHT22;34544;48.836;9.174;2023-06-26T09:58:56;35.70;77.00
48752;DHT22;34544;48.836;9.174;2023-06-26T10:01:26;35.30;77.50
48752;DHT22;34544;48.836;9.174;2023-06-26T10:03:53;35.10;78.50
48752;DHT22;34544;48.836;9.174;2023-06-26T10:06:31;34.90;78.50
48752;DHT22;34544;48.836;9.174;2023-06-26T10:09:00;34.80;79.40
48752;DHT22;34544;48.836;9.174;2023-06-26T10:11:33;34.30;79.30
48752;DHT22;34544;48.836;9.174;2023-06-26T10:14:01;34.00;80.30
48752;DHT22;34544;48.836;9.174;2023-06-26T10:16:28;33.60;81.00
48752;DHT22;34544;48.836;9.174;2023-06-26T10:19:02;33.70;82.60
48752;DHT22;34544;48.836;9.174;2023-06-26T10:21:29;33.90;81.20
48752;DHT22;34544;48.836;9.174;2023-06-26T10:23:57;34.30;82.20
48752;DHT22;34544;48.836;9.174;2023-06-26T10:26:24;34.60;81.80
48752;DHT22;34544;48.836;9.174;2023-06-26T10:28:52;34.90;81.30
48752;DHT22;34544;48.836;9.174;2023-06-26T10:31:21;35.40;81.00
48752;DHT22;34544;48.836;9.174;2023-06-26T10:33:49;35.70;80.60
48752;DHT22;34544;48.836;9.174;2023-06-26T10:36:17;35.70;79.20
48752;DHT22;34544;48.836;9.174;2023-06-26T10:38:51;35.60;79.40
48752;DHT22;34544;48.836;9.174;2023-06-26T10:41:20;35.80;79.70
48752;DHT22;34544;48.836;9.174;2023-06-26T10:43:49;35.40;77.80
48752;DHT22;34544;48.836;9.174;2023-06-26T10:46:15;35.10;78.10
48752;DHT22;34544;48.836;9.174;2023-06-26T10:49:00;35.20;77.70
48752;DHT22;34544;48.836;9.174;2023-06-26T10:51:27;34.80;77.70
48752;DHT22;34544;48.836;9.174;2023-06-26T10:53:56;35.00;77.30
48752;DHT22;34544;48.836;9.174;2023-06-26T10:56:41;34.10;77.40
48752;DHT22;34544;48.836;9.174;2023-06-26T10:59:17;34.10;78.50
48752;DHT22;34544;48.836;9.174;2023-06-26T11:01:44;34.00;78.70
48752;DHT22;34544;48.836;9.174;2023-06-26T11:04:10;34.70;79.00
48752;DHT22;34544;48.836;9.174;2023-06-26T11:06:38;34.80;78.30
48752;DHT22;34544;48.836;9.174;2023-06-26T11:09:17;35.00;78.50
48752;DHT22;34544;48.836;9.174;2023-06-26T11:14:22;35.10;77.70
48752;DHT22;34544;48.836;9.174;2023-06-26T11:16:48;35.10;78.30
48752;DHT22;34544;48.836;9.174;2023-06-26T11:19:16;35.40;78.00
48752;DHT22;34544;48.836;9.174;2023-06-26T11:21:42;35.50;78.30
48752;DHT22;34544;48.836;9.174;2023-06-26T11:24:08;34.60;77.90
48752;DHT22;34544;48.836;9.174;2023-06-26T11:26:44;34.70;78.90
48752;DHT22;34544;48.836;9.174;2023-06-26T11:29:11;35.00;80.30
48752;DHT22;34544;48.836;9.174;2023-06-26T11:31:38;35.40;80.30
48752;DHT22;34544;48.836;9.174;2023-06-26T11:34:06;35.80;79.80
48752;DHT22;34544;48.836;9.174;2023-06-26T11:36:37;36.20;79.30
48752;DHT22;34544;48.836;9.174;2023-06-26T11:39:05;36.60;79.50
48752;DHT22;34544;48.836;9.174;2023-06-26T11:41:38;36.80;78.50
48752;DHT22;34544;48.836;9.174;2023-06-26T11:44:08;36.90;78.80
48752;DHT22;34544;48.836;9.174;2023-06-26T11:46:35;36.70;79.00
48752;DHT22;34544;48.836;9.174;2023-06-26T11:49:05;36.50;78.60
48752;DHT22;34544;48.836;9.174;2023-06-26T11:51:31;36.40;78.90
48752;DHT22;34544;48.836;9.174;2023-06-26T11:53:56;35.90;79.50
48752;DHT22;34544;48.836;9.174;2023-06-26T11:56:22;36.20;79.70
48752;DHT22;34544;48.836;9.174;2023-06-26T12:01:35;35.90;79.50
48752;DHT22;34544;48.836;9.174;2023-06-26T12:04:03;35.70;80.00
48752;DHT22;34544;48.836;9.174;2023-06-26T12:06:30;35.40;81.00
48752;DHT22;34544;48.836;9.174;2023-06-26T12:09:00;35.40;81.10
48752;DHT22;34544;48.836;9.174;2023-06-26T12:11:27;35.60;80.90
48752;DHT22;34544;48.836;9.174;2023-06-26T12:13:54;36.00;80.50
48752;DHT22;34544;48.836;9.174;2023-06-26T12:16:20;36.10;80.30
48752;DHT22;34544;48.836;9.174;2023-06-26T12:18:46;35.90;80.00
48752;DHT22;34544;48.836;9.174;2023-06-26T12:24:03;36.80;79.70
48752;DHT22;34544;48.836;9.174;2023-06-26T12:26:36;36.20;79.00
48752;DHT22;34544;48.836;9.174;2023-06-26T12:29:06;35.90;79.10
48752;DHT22;34544;48.836;9.174;2023-06-26T12:31:32;36.10;80.30
48752;DHT22;34544;48.836;9.174;2023-06-26T12:33:58;36.30;79.20
48752;DHT22;34544;48.836;9.174;2023-06-26T12:36:24;36.50;79.60
48752;DHT22;34544;48.836;9.174;2023-06-26T12:38:52;36.50;79.40
48752;DHT22;34544;48.836;9.174;2023-06-26T12:41:17;36.70;79.10
48752;DHT22;34544;48.836;9.174;2023-06-26T12:43:45;36.90;78.90
48752;DHT22;34544;48.836;9.174;2023-06-26T12:46:11;37.10;78.00
48752;DHT22;34544;48.836;9.174;2023-06-26T12:48:38;36.90;78.70
48752;DHT22;34544;48.836;9.174;2023-06-26T12:51:10;36.80;79.20
48752;DHT22;34544;48.836;9.174;2023-06-26T12:53:36;37.30;78.60
48752;DHT22;34544;48.836;9.174;2023-06-26T12:56:02;37.00;77.40
48752;DHT22;34544;48.836;9.174;2023-06-26T12:58:28;37.20;77.40
48752;DHT22;34544;48.836;9.174;2023-06-26T13:00:54;37.10;76.90
48752;DHT22;34544;48.836;9.174;2023-06-26T13:03:19;37.10;77.80
48752;DHT22;34544;48.836;9.174;2023-06-26T13:05:48;36.90;77.10
48752;DHT22;34544;48.836;9.174;2023-06-26T13:08:13;37.20;77.30
48752;DHT22;34544;48.836;9.174;2023-06-26T13:10:42;36.90;76.40
48752;DHT22;34544;48.836;9.174;2023-06-26T13:13:11;36.80;76.80
48752;DHT22;34544;48.836;9.174;2023-06-26T13:15:37;36.60;77.30
48752;DHT22;34544;48.836;9.174;2023-06-26T13:18:03;35.80;76.40
48752;DHT22;34544;48.836;9.174;2023-06-26T13:20:28;36.20;76.70
48752;DHT22;34544;48.836;9.174;2023-06-26T13:22:55;36.30;76.40
48752;DHT22;34544;48.836;9.174;2023-06-26T13:25:21;36.50;76.50
48752;DHT22;34544;48.836;9.174;2023-06-26T13:27:47;36.40;75.20
48752;DHT22;34544;48.836;9.174;2023-06-26T13:30:13;36.20;74.60
48752;DHT22;34544;48.836;9.174;2023-06-26T13:32:39;36.70;75.30
48752;DHT22;34544;48.836;9.174;2023-06-26T13:35:05;36.60;74.00
48752;DHT22;34544;48.836;9.174;2023-06-26T13:37:31;36.80;73.80
48752;DHT22;34544;48.836;9.174;2023-06-26T13:39:57;36.70;74.40
48752;DHT22;34544;48.836;9.174;2023-06-26T13:42:24;36.70;73.70
48752;DHT22;34544;48.836;9.174;2023-06-26T13:44:50;36.40;72.00
48752;DHT22;34544;48.836;9.174;2023-06-26T13:47:16;36.80;72.40
48752;DHT22;34544;48.836;9.174;2023-06-26T13:49:41;36.20;71.60
48752;DHT22;34544;48.836;9.174;2023-06-26T13:52:07;36.00;71.80
48752;DHT22;34544;48.836;9.174;2023-06-26T13:54:36;35.50;71.80
48752;DHT22;34544;48.836;9.174;2023-06-26T13:57:04;35.70;72.90
48752;DHT22;34544;48.836;9.174;2023-06-26T13:59:30;35.50;72.00
48752;DHT22;34544;48.836;9.174;2023-06-26T14:01:56;35.60;72.90
48752;DHT22;34544;48.836;9.174;2023-06-26T14:04:22;36.00;72.70
48752;DHT22;34544;48.836;9.174;2023-06-26T14:06:48;35.10;71.60
48752;DHT22;34544;48.836;9.174;2023-06-26T14:09:13;35.30;72.20
48752;DHT22;34544;48.836;9.174;2023-06-26T14:11:39;35.20;71.90
48752;DHT22;34544;48.836;9.174;2023-06-26T14:14:05;35.20;72.70
48752;DHT22;34544;48.836;9.174;2023-06-26T14:16:31;35.50;72.20
48752;DHT22;34544;48.836;9.174;2023-06-26T14:18:57;35.60;71.90
48752;DHT22;34544;48.836;9.174;2023-06-26T14:21:23;35.80;71.70
48752;DHT22;34544;48.836;9.174;2023-06-26T14:23:48;36.20;71.00
48752;DHT22;34544;48.836;9.174;2023-06-26T14:26:14;36.30;70.00
48752;DHT22;34544;48.836;9.174;2023-06-26T14:28:40;35.90;69.60
48752;DHT22;34544;48.836;9.174;2023-06-26T14:31:06;36.10;70.40
48752;DHT22;34544;48.836;9.174;2023-06-26T14:33:32;36.00;70.00
48752;DHT22;34544;48.836;9.174;2023-06-26T14:35:58;36.10;70.60
48752;DHT22;34544;48.836;9.174;2023-06-26T14:38:23;36.10;70.00
48752;DHT22;34544;48.836;9.174;2023-06-26T14:40:49;36.50;71.80
48752;DHT22;34544;48.836;9.174;2023-06-26T14:43:14;36.20;69.80
48752;DHT22;34544;48.836;9.174;2023-06-26T14:45:42;36.10;70.00
48752;DHT22;34544;48.836;9.174;2023-06-26T14:48:07;36.10;70.30
48752;DHT22;34544;48.836;9.174;2023-06-26T14:50:33;36.30;70.40
48752;DHT22;34544;48.836;9.174;2023-06-26T14:52:59;36.20;70.10
48752;DHT22;34544;48.836;9.174;2023-06-26T14:55:24;35.90;70.60
48752;DHT22;34544;48.836;9.174;2023-06-26T14:57:50;35.30;70.80
48752;DHT22;34544;48.836;9.174;2023-06-26T15:00:16;34.80;71.70
48752;DHT22;34544;48.836;9.174;2023-06-26T15:02:42;34.90;72.10
48752;DHT22;34544;48.836;9.174;2023-06-26T15:05:08;35.10;72.30
48752;DHT22;34544;48.836;9.174;2023-06-26T15:07:34;35.20;72.00
48752;DHT22;34544;48.836;9.174;2023-06-26T15:09:59;34.90;72.00
48752;DHT22;34544;48.836;9.174;2023-06-26T15:12:25;34.80;71.40
48752;DHT22;34544;48.836;9.174;2023-06-26T15:14:52;34.60;71.50
48752;DHT22;34544;48.836;9.174;2023-06-26T15:17:18;34.80;72.00
48752;DHT22;34544;48.836;9.174;2023-06-26T15:19:44;34.70;71.80
48752;DHT22;34544;48.836;9.174;2023-06-26T15:22:09;34.80;71.70
48752;DHT22;34544;48.836;9.174;2023-06-26T15:24:35;34.40;71.80
48752;DHT22;34544;48.836;9.174;2023-06-26T15:27:01;34.20;71.50
48752;DHT22;34544;48.836;9.174;2023-06-26T15:29:26;33.90;72.00
48752;DHT22;34544;48.836;9.174;2023-06-26T15:31:53;33.20;72.90
48752;DHT22;34544;48.836;9.174;2023-06-26T15:34:19;32.80;73.40
48752;DHT22;34544;48.836;9.174;2023-06-26T15:36:45;32.30;74.00
48752;DHT22;34544;48.836;9.174;2023-06-26T15:39:10;32.40;74.70
48752;DHT22;34544;48.836;9.174;2023-06-26T15:41:36;32.00;74.40
48752;DHT22;34544;48.836;9.174;2023-06-26T15:44:05;31.70;75.10
48752;DHT22;34544;48.836;9.174;2023-06-26T15:46:31;31.80;75.20
48752;DHT22;34544;48.836;9.174;2023-06-26T15:48:57;31.70;74.80
48752;DHT22;34544;48.836;9.174;2023-06-26T15:51:22;31.60;75.20